Time;durP1;ratioP1;P1;durP2;ratioP2;P2;SDS_P1;SDS_P2;PMS_P1;PMS_P2;Temp;Humidity;BMP_temperature;BMP_pressure;BME280_temperature;BME280_humidity;BME280_pressure;Samples;Min_cycle;Max_cycle;Signal;HPM_P1;HPM_P2
2024/03/27 00:01:42;;;;;;;0.40;0.40;;;9.20;99.90;;;;;;4433358;32;20517;-64
2024/03/27 00:04:09;;;;;;;0.30;0.30;;;9.10;99.90;;;;;;4437843;32;20076;-63
2024/03/27 00:06:34;;;;;;;0.52;0.40;;;9.00;99.90;;;;;;4446542;32;20156;-64
2024/03/27 00:09:00;;;;;;;3.87;1.23;;;9.00;99.90;;;;;;4448638;32;20078;-63
2024/03/27 00:11:27;;;;;;;1.15;0.65;;;9.00;99.90;;;;;;4449143;32;20430;-63
2024/03/27 00:13:53;;;;;;;0.40;0.40;;;8.90;99.90;;;;;;4448831;32;20080;-66
2024/03/27 00:16:18;;;;;;;0.40;0.40;;;8.90;99.90;;;;;;4445367;32;20088;-66
2024/03/27 00:18:44;;;;;;;1.77;1.40;;;8.90;99.90;;;;;;4444256;32;20072;-66
2024/03/27 00:21:09;;;;;;;0.95;0.82;;;8.90;99.90;;;;;;4448189;32;20068;-65
2024/03/27 00:23:35;;;;;;;0.43;0.43;;;8.80;99.90;;;;;;4444864;32;20184;-65
2024/03/27 00:26:00;;;;;;;2.90;1.08;;;8.80;99.90;;;;;;4446853;32;20093;-66
2024/03/27 00:28:26;;;;;;;0.65;0.50;;;8.80;99.90;;;;;;4444233;32;20084;-65
2024/03/27 00:30:52;;;;;;;1.27;0.75;;;8.80;99.90;;;;;;4445981;32;20064;-65
2024/03/27 00:33:18;;;;;;;0.50;0.50;;;8.80;99.90;;;;;;4435767;32;20521;-65
2024/03/27 00:35:59;;;;;;;0.50;0.50;;;8.80;99.90;;;;;;4442212;32;20131;-66
2024/03/27 00:38:25;;;;;;;0.90;0.60;;;8.80;99.90;;;;;;4428739;32;20116;-66
2024/03/27 00:40:51;;;;;;;1.00;0.60;;;8.70;99.90;;;;;;4433592;32;20095;-66
2024/03/27 00:43:17;;;;;;;0.82;0.82;;;8.70;99.90;;;;;;4447766;32;20258;-65
2024/03/27 00:45:43;;;;;;;1.27;0.88;;;8.60;99.90;;;;;;4427408;32;20118;-65
2024/03/27 00:48:09;;;;;;;1.85;1.25;;;8.70;99.90;;;;;;4443364;32;20068;-66
2024/03/27 00:50:35;;;;;;;0.90;0.70;;;8.70;99.90;;;;;;4447544;32;20121;-65
2024/03/27 00:53:02;;;;;;;0.47;0.47;;;8.60;99.90;;;;;;4449361;32;20521;-66
2024/03/27 00:55:27;;;;;;;0.60;0.60;;;8.60;99.90;;;;;;4433386;32;20081;-66
2024/03/27 00:57:55;;;;;;;2.80;1.20;;;8.60;99.90;;;;;;4429283;32;20085;-66
2024/03/27 01:00:21;;;;;;;0.30;0.30;;;8.60;99.90;;;;;;4431883;32;20422;-66
2024/03/27 01:02:47;;;;;;;0.52;0.52;;;8.50;99.90;;;;;;4433584;32;20077;-65
2024/03/27 01:05:13;;;;;;;0.60;0.60;;;8.50;99.90;;;;;;4445025;32;20136;-65
2024/03/27 01:07:39;;;;;;;1.10;0.62;;;8.50;99.90;;;;;;4433535;32;20485;-66
2024/03/27 01:10:08;;;;;;;0.75;0.70;;;8.50;99.90;;;;;;4430817;32;20061;-63
2024/03/27 01:12:33;;;;;;;0.62;0.62;;;8.40;99.90;;;;;;4445755;32;20088;-66
2024/03/27 01:14:59;;;;;;;1.12;1.02;;;8.40;99.90;;;;;;4441120;32;20128;-65
2024/03/27 01:17:24;;;;;;;0.93;0.85;;;8.30;99.90;;;;;;4444605;32;20077;-65
2024/03/27 01:19:50;;;;;;;0.85;0.85;;;8.20;99.90;;;;;;4447400;32;20088;-65
2024/03/27 01:22:15;;;;;;;1.12;1.05;;;8.20;99.90;;;;;;4443798;32;20061;-66
2024/03/27 01:24:41;;;;;;;0.60;0.60;;;8.20;99.90;;;;;;4442936;32;20098;-66
2024/03/27 01:27:07;;;;;;;0.60;0.60;;;8.20;99.90;;;;;;4442818;32;20615;-66
2024/03/27 01:29:32;;;;;;;0.20;0.20;;;8.20;99.90;;;;;;4443960;32;20093;-65
2024/03/27 01:31:57;;;;;;;0.30;0.30;;;8.20;99.90;;;;;;4428465;32;20088;-65
2024/03/27 01:34:23;;;;;;;0.40;0.40;;;8.20;99.90;;;;;;4442018;32;20077;-65
2024/03/27 01:36:48;;;;;;;0.55;0.55;;;8.10;99.90;;;;;;4430524;32;20073;-66
2024/03/27 01:39:14;;;;;;;2.55;0.95;;;8.10;99.90;;;;;;4447447;32;20523;-65
2024/03/27 01:41:40;;;;;;;1.80;0.93;;;8.00;99.90;;;;;;4432881;32;20080;-65
2024/03/27 01:44:11;;;;;;;0.30;0.30;;;7.90;99.90;;;;;;4445950;32;20093;-66
2024/03/27 01:46:37;;;;;;;2.55;0.82;;;8.00;99.90;;;;;;4432736;32;20529;-66
2024/03/27 01:49:03;;;;;;;0.93;0.93;;;8.00;99.90;;;;;;4442334;32;20076;-66
2024/03/27 01:51:28;;;;;;;0.80;0.80;;;8.10;99.90;;;;;;4444501;32;20529;-65
2024/03/27 01:53:54;;;;;;;0.88;0.70;;;8.10;99.90;;;;;;4445815;32;20118;-66
2024/03/27 01:56:19;;;;;;;0.60;0.60;;;8.10;99.90;;;;;;4442223;32;20098;-65
2024/03/27 01:58:45;;;;;;;0.30;0.30;;;8.20;99.90;;;;;;4444081;32;20127;-66
2024/03/27 02:01:11;;;;;;;0.50;0.50;;;8.20;99.90;;;;;;4447936;32;20571;-65
2024/03/27 02:03:36;;;;;;;0.60;0.60;;;8.20;99.90;;;;;;4447433;32;20068;-65
2024/03/27 02:06:02;;;;;;;0.52;0.50;;;8.20;99.90;;;;;;4443344;32;20090;-65
2024/03/27 02:08:28;;;;;;;0.60;0.60;;;8.10;99.90;;;;;;4429191;32;20084;-65
2024/03/27 02:10:53;;;;;;;0.50;0.50;;;8.10;99.90;;;;;;4447895;32;20419;-65
2024/03/27 02:13:19;;;;;;;1.35;0.80;;;8.00;99.90;;;;;;4445593;32;20085;-64
2024/03/27 02:15:44;;;;;;;0.30;0.30;;;8.10;99.90;;;;;;4448110;32;20084;-64
2024/03/27 02:18:10;;;;;;;0.85;0.75;;;8.10;99.90;;;;;;4444130;32;20092;-66
2024/03/27 02:20:40;;;;;;;0.73;0.73;;;8.10;99.90;;;;;;4432441;32;20077;-66
2024/03/27 02:23:10;;;;;;;0.40;0.40;;;8.00;99.90;;;;;;4447668;32;20072;-64
2024/03/27 02:25:46;;;;;;;1.08;0.73;;;8.00;99.90;;;;;;4447402;32;20513;-64
2024/03/27 02:28:12;;;;;;;0.68;0.68;;;8.10;99.90;;;;;;4444160;32;20093;-64
2024/03/27 02:30:44;;;;;;;0.55;0.55;;;8.00;99.90;;;;;;4444572;32;20065;-64
2024/03/27 02:33:10;;;;;;;0.35;0.35;;;8.00;99.90;;;;;;4441830;32;21189;-66
2024/03/27 02:35:35;;;;;;;0.40;0.40;;;8.00;99.90;;;;;;4442376;32;20128;-66
2024/03/27 02:38:01;;;;;;;1.20;1.10;;;8.00;99.90;;;;;;4428937;32;20061;-66
2024/03/27 02:40:26;;;;;;;0.37;0.37;;;8.00;99.90;;;;;;4427581;32;20601;-66
2024/03/27 02:42:51;;;;;;;0.70;0.70;;;8.00;99.90;;;;;;4416766;32;20069;-66
2024/03/27 02:45:17;;;;;;;1.65;0.90;;;7.90;99.90;;;;;;4442312;32;20160;-66
2024/03/27 02:47:42;;;;;;;0.50;0.50;;;7.90;99.90;;;;;;4439836;32;20589;-66
2024/03/27 02:50:08;;;;;;;0.70;0.70;;;7.90;99.90;;;;;;4443775;32;20080;-66
2024/03/27 02:52:34;;;;;;;0.30;0.30;;;7.90;99.90;;;;;;4426188;32;20076;-66
2024/03/27 02:54:59;;;;;;;2.35;0.93;;;7.80;99.90;;;;;;4452410;32;20069;-66
2024/03/27 02:57:24;;;;;;;0.77;0.77;;;7.90;99.90;;;;;;4455497;32;20576;-66
2024/03/27 02:59:50;;;;;;;0.40;0.40;;;7.90;99.90;;;;;;4454861;32;20060;-65
2024/03/27 03:02:16;;;;;;;0.30;0.30;;;7.90;99.90;;;;;;4455083;32;20127;-66
2024/03/27 03:04:41;;;;;;;0.85;0.70;;;7.80;99.90;;;;;;4455340;32;20061;-66
2024/03/27 03:07:06;;;;;;;1.10;0.85;;;7.80;99.90;;;;;;4454926;32;20131;-66
2024/03/27 03:09:32;;;;;;;0.82;0.82;;;7.80;99.90;;;;;;4454285;32;20088;-66
2024/03/27 03:11:57;;;;;;;0.57;0.57;;;7.80;99.90;;;;;;4455303;32;20077;-65
2024/03/27 03:14:24;;;;;;;0.30;0.30;;;7.80;99.90;;;;;;4455714;32;20064;-66
2024/03/27 03:16:49;;;;;;;3.35;0.60;;;7.70;99.90;;;;;;4456063;32;20126;-66
2024/03/27 03:19:15;;;;;;;0.40;0.40;;;7.80;99.90;;;;;;4461809;32;20091;-66
2024/03/27 03:21:41;;;;;;;0.95;0.85;;;7.80;99.90;;;;;;4459686;32;20057;-65
2024/03/27 03:24:06;;;;;;;0.30;0.30;;;7.80;99.90;;;;;;4458141;32;20076;-66
2024/03/27 03:26:32;;;;;;;0.65;0.65;;;7.80;99.90;;;;;;4452498;32;20085;-66
2024/03/27 03:28:57;;;;;;;0.30;0.30;;;7.90;99.90;;;;;;4459130;32;20084;-65
2024/03/27 03:31:23;;;;;;;3.22;0.82;;;7.90;99.90;;;;;;4459248;32;20077;-65
2024/03/27 03:33:50;;;;;;;2.85;1.42;;;7.80;99.90;;;;;;4460391;32;20060;-63
2024/03/27 03:36:15;;;;;;;2.62;1.45;;;7.70;99.90;;;;;;4460657;32;20065;-63
2024/03/27 03:38:41;;;;;;;0.73;0.73;;;7.80;99.90;;;;;;4462700;32;20084;-63
2024/03/27 03:41:10;;;;;;;0.40;0.40;;;7.70;99.90;;;;;;4462372;32;20123;-63
2024/03/27 03:43:36;;;;;;;2.70;1.15;;;7.80;99.90;;;;;;4453592;32;20077;-62
2024/03/27 03:46:01;;;;;;;0.30;0.30;;;7.80;99.90;;;;;;4458671;32;20123;-62
2024/03/27 03:48:27;;;;;;;0.57;0.57;;;7.80;99.90;;;;;;4451597;32;20084;-63
2024/03/27 03:50:52;;;;;;;0.57;0.57;;;7.80;99.90;;;;;;4458430;32;20061;-62
2024/03/27 03:53:18;;;;;;;0.60;0.60;;;7.80;99.90;;;;;;4459257;32;20123;-63
2024/03/27 03:55:43;;;;;;;0.40;0.40;;;7.80;99.90;;;;;;4459089;32;20127;-63
2024/03/27 03:58:11;;;;;;;0.90;0.90;;;7.80;99.90;;;;;;4458195;32;20064;-62
2024/03/27 04:00:36;;;;;;;1.95;1.33;;;7.80;99.90;;;;;;4449738;32;20151;-63
2024/03/27 04:03:02;;;;;;;0.57;0.57;;;7.80;99.90;;;;;;4457082;32;20132;-63
2024/03/27 04:05:28;;;;;;;0.68;0.68;;;7.70;99.90;;;;;;4459453;32;20084;-62
2024/03/27 04:07:53;;;;;;;0.50;0.50;;;7.80;99.90;;;;;;4458194;32;20103;-62
2024/03/27 04:10:18;;;;;;;0.57;0.57;;;7.80;99.90;;;;;;4458311;32;20072;-62
2024/03/27 04:12:44;;;;;;;0.68;0.68;;;7.70;99.90;;;;;;4456371;32;20574;-62
2024/03/27 04:15:09;;;;;;;0.82;0.82;;;7.70;99.90;;;;;;4459175;32;20073;-62
2024/03/27 04:17:35;;;;;;;0.62;0.62;;;7.70;99.90;;;;;;4458178;32;20167;-63
2024/03/27 04:20:06;;;;;;;0.50;0.50;;;7.60;99.90;;;;;;4459484;32;20072;-64
2024/03/27 04:22:31;;;;;;;0.50;0.50;;;7.70;99.90;;;;;;4451881;32;20096;-62
2024/03/27 04:24:57;;;;;;;0.50;0.50;;;7.70;99.90;;;;;;4459146;32;20488;-61
2024/03/27 04:27:23;;;;;;;0.40;0.40;;;7.70;99.90;;;;;;4458082;32;20077;-63
2024/03/27 04:29:53;;;;;;;0.37;0.37;;;7.60;99.90;;;;;;4455629;32;20134;-62
2024/03/27 04:32:19;;;;;;;0.77;0.77;;;7.70;99.90;;;;;;4449379;32;20065;-63
2024/03/27 04:34:44;;;;;;;5.72;1.75;;;7.70;99.90;;;;;;4457018;32;20484;-64
2024/03/27 04:37:10;;;;;;;0.30;0.30;;;7.60;99.90;;;;;;4456285;32;20081;-62
2024/03/27 04:39:35;;;;;;;0.30;0.30;;;7.60;99.90;;;;;;4451144;32;20069;-63
2024/03/27 04:42:01;;;;;;;0.40;0.40;;;7.60;99.90;;;;;;4455864;32;20076;-62
2024/03/27 04:44:27;;;;;;;0.40;0.40;;;7.50;99.90;;;;;;4456114;32;20129;-63
2024/03/27 04:46:53;;;;;;;4.03;1.02;;;7.70;99.90;;;;;;4456694;32;20517;-62
2024/03/27 04:49:18;;;;;;;0.65;0.50;;;7.70;99.90;;;;;;4457354;32;20073;-63
2024/03/27 04:51:44;;;;;;;0.73;0.73;;;7.60;99.90;;;;;;4458211;32;20123;-64
2024/03/27 04:54:09;;;;;;;0.60;0.55;;;7.50;99.90;;;;;;4458505;32;20065;-63
2024/03/27 04:56:34;;;;;;;4.03;1.75;;;7.50;99.90;;;;;;4455965;32;20064;-63
2024/03/27 04:59:00;;;;;;;27.65;5.57;;;7.50;99.90;;;;;;4458159;32;20068;-63
2024/03/27 05:01:25;;;;;;;0.45;0.45;;;7.40;99.90;;;;;;4457892;32;20100;-63
2024/03/27 05:03:51;;;;;;;0.43;0.43;;;7.40;99.90;;;;;;4457586;32;20065;-63
2024/03/27 05:06:16;;;;;;;0.50;0.50;;;7.40;99.90;;;;;;4458912;32;20076;-63
2024/03/27 05:08:42;;;;;;;0.30;0.30;;;7.40;99.90;;;;;;4458156;32;20080;-63
2024/03/27 05:11:07;;;;;;;0.52;0.52;;;7.40;99.90;;;;;;4458600;32;20092;-63
2024/03/27 05:13:33;;;;;;;0.70;0.70;;;7.40;99.90;;;;;;4456527;32;20093;-63
2024/03/27 05:15:58;;;;;;;0.35;0.35;;;7.40;99.90;;;;;;4458118;32;20704;-63
2024/03/27 05:18:24;;;;;;;0.50;0.50;;;7.40;99.90;;;;;;4458622;32;21210;-64
2024/03/27 05:20:54;;;;;;;0.40;0.40;;;7.40;99.90;;;;;;4458305;32;20068;-63
2024/03/27 05:23:21;;;;;;;0.47;0.47;;;7.40;99.90;;;;;;4450984;32;20077;-64
2024/03/27 05:25:50;;;;;;;0.55;0.55;;;7.40;99.90;;;;;;4457614;32;20088;-63
2024/03/27 05:28:15;;;;;;;0.45;0.45;;;7.40;99.90;;;;;;4450591;32;20061;-63
2024/03/27 05:30:41;;;;;;;0.85;0.68;;;7.40;99.90;;;;;;4457246;32;20100;-63
2024/03/27 05:33:07;;;;;;;1.02;0.93;;;7.50;99.90;;;;;;4456662;32;20126;-63
2024/03/27 05:35:34;;;;;;;0.40;0.40;;;7.50;99.90;;;;;;4457498;32;20073;-63
2024/03/27 05:38:01;;;;;;;0.40;0.40;;;7.60;99.90;;;;;;4457219;32;20108;-63
2024/03/27 05:40:27;;;;;;;10.77;0.60;;;7.60;99.90;;;;;;4457130;32;20092;-63
2024/03/27 05:42:52;;;;;;;2.17;1.52;;;7.60;99.90;;;;;;4457345;32;20443;-63
2024/03/27 05:45:18;;;;;;;0.50;0.50;;;7.60;99.90;;;;;;4457968;32;20072;-63
2024/03/27 05:47:43;;;;;;;2.85;0.93;;;7.70;99.90;;;;;;4456179;32;20064;-64
2024/03/27 05:50:09;;;;;;;0.65;0.60;;;7.70;99.90;;;;;;4457035;32;20695;-63
2024/03/27 05:52:36;;;;;;;0.50;0.50;;;7.80;99.90;;;;;;4456074;32;20065;-63
2024/03/27 05:55:03;;;;;;;0.28;0.28;;;7.80;99.90;;;;;;4450444;32;20074;-63
2024/03/27 05:57:29;;;;;;;0.30;0.30;;;7.80;99.90;;;;;;4449375;32;20064;-63
2024/03/27 05:59:55;;;;;;;1.40;0.70;;;7.80;99.90;;;;;;4453213;32;20126;-64
2024/03/27 06:02:20;;;;;;;0.47;0.47;;;7.80;99.90;;;;;;4451329;32;20520;-64
2024/03/27 06:04:46;;;;;;;0.30;0.30;;;7.90;99.90;;;;;;4456550;32;20096;-63
2024/03/27 06:07:11;;;;;;;0.55;0.40;;;7.90;99.90;;;;;;4456017;32;20528;-63
2024/03/27 06:09:37;;;;;;;0.90;0.90;;;7.90;99.90;;;;;;4455861;32;20069;-63
2024/03/27 06:12:03;;;;;;;0.40;0.40;;;7.90;99.90;;;;;;4454468;32;20080;-63
2024/03/27 06:14:29;;;;;;;1.73;1.10;;;8.00;99.90;;;;;;4455061;32;20096;-64
2024/03/27 06:16:54;;;;;;;0.40;0.40;;;8.00;99.90;;;;;;4457294;32;20076;-64
2024/03/27 06:19:21;;;;;;;0.45;0.45;;;8.10;99.90;;;;;;4449077;32;20575;-63
2024/03/27 06:21:46;;;;;;;0.70;0.70;;;8.10;99.90;;;;;;4455562;32;20069;-64
2024/03/27 06:24:12;;;;;;;0.40;0.40;;;8.20;99.90;;;;;;4456598;32;20069;-64
2024/03/27 06:26:37;;;;;;;4.53;1.40;;;8.20;99.90;;;;;;4456587;32;20077;-63
2024/03/27 06:29:02;;;;;;;10.15;1.37;;;8.20;99.90;;;;;;4449361;32;20443;-64
2024/03/27 06:31:28;;;;;;;0.40;0.40;;;8.30;99.90;;;;;;4454964;32;20093;-65
2024/03/27 06:33:55;;;;;;;0.62;0.62;;;8.40;99.90;;;;;;4455398;32;20068;-65
2024/03/27 06:36:21;;;;;;;0.65;0.65;;;8.40;99.90;;;;;;4447848;32;20560;-66
2024/03/27 06:38:48;;;;;;;0.40;0.40;;;8.40;99.90;;;;;;4455687;32;20084;-65
2024/03/27 06:41:14;;;;;;;0.37;0.37;;;8.60;99.90;;;;;;4455605;32;20558;-65
2024/03/27 06:43:39;;;;;;;0.50;0.50;;;8.60;99.90;;;;;;4455496;32;20072;-65
2024/03/27 06:46:05;;;;;;;0.43;0.43;;;8.70;99.90;;;;;;4453257;32;20129;-66
2024/03/27 06:48:43;;;;;;;3.45;1.62;;;8.70;99.90;;;;;;4455579;32;20126;-65
2024/03/27 06:51:09;;;;;;;0.62;0.62;;;8.80;99.90;;;;;;4451636;32;20089;-65
2024/03/27 06:53:34;;;;;;;31.77;0.95;;;8.90;99.90;;;;;;4454702;32;20072;-65
2024/03/27 06:56:03;;;;;;;0.77;0.73;;;9.00;99.90;;;;;;4453450;32;20076;-65
2024/03/27 06:58:29;;;;;;;1.35;0.75;;;9.00;99.90;;;;;;4453561;32;20080;-65
2024/03/27 07:00:54;;;;;;;0.37;0.37;;;9.10;99.90;;;;;;4454368;32;20064;-67
2024/03/27 07:03:21;;;;;;;0.30;0.30;;;9.20;99.90;;;;;;4455510;32;20065;-66
2024/03/27 07:05:47;;;;;;;1.87;0.70;;;9.30;99.90;;;;;;4455160;32;20069;-65
2024/03/27 07:08:12;;;;;;;0.30;0.30;;;9.30;99.90;;;;;;4454633;32;20097;-65
2024/03/27 07:10:38;;;;;;;1.37;0.88;;;9.40;99.90;;;;;;4454979;32;20077;-65
2024/03/27 07:13:04;;;;;;;0.30;0.30;;;9.50;99.90;;;;;;4454542;32;20521;-62
2024/03/27 07:15:29;;;;;;;0.75;0.55;;;9.60;99.90;;;;;;4454909;32;20431;-62
2024/03/27 07:17:55;;;;;;;0.55;0.55;;;9.50;99.90;;;;;;4454106;32;20089;-61
2024/03/27 07:20:20;;;;;;;1.10;0.68;;;9.50;99.90;;;;;;4453623;32;20390;-62
2024/03/27 07:22:47;;;;;;;0.30;0.30;;;9.60;99.90;;;;;;4455542;32;20081;-61
2024/03/27 07:25:12;;;;;;;0.40;0.40;;;9.70;99.90;;;;;;4447511;32;20085;-62
2024/03/27 07:27:38;;;;;;;6.53;1.60;;;9.80;99.90;;;;;;4453222;32;20076;-61
2024/03/27 07:30:04;;;;;;;3.47;0.85;;;9.90;99.90;;;;;;4444824;32;20080;-61
2024/03/27 07:32:30;;;;;;;0.30;0.30;;;10.00;99.90;;;;;;4454578;32;20238;-61
2024/03/27 07:34:55;;;;;;;5.43;1.25;;;10.20;99.90;;;;;;4455815;32;20508;-63
2024/03/27 07:37:22;;;;;;;0.50;0.50;;;10.30;99.90;;;;;;4453179;32;20773;-63
2024/03/27 07:39:48;;;;;;;0.40;0.40;;;10.30;99.90;;;;;;4450457;32;20111;-62
2024/03/27 07:42:13;;;;;;;0.73;0.73;;;10.30;99.90;;;;;;4455241;32;20073;-63
2024/03/27 07:44:39;;;;;;;0.57;0.57;;;10.40;99.90;;;;;;4455587;32;20107;-63
2024/03/27 07:47:04;;;;;;;0.50;0.50;;;10.50;99.90;;;;;;4453773;32;20085;-63
2024/03/27 07:49:30;;;;;;;0.50;0.50;;;10.60;99.90;;;;;;4455322;32;20084;-63
2024/03/27 07:51:55;;;;;;;1.98;1.42;;;10.70;99.90;;;;;;4454993;32;20078;-63
2024/03/27 07:54:21;;;;;;;0.37;0.37;;;10.60;99.90;;;;;;4454192;32;20089;-62
2024/03/27 07:56:47;;;;;;;1.42;1.02;;;10.70;99.90;;;;;;4454369;32;20065;-66
2024/03/27 07:59:13;;;;;;;0.40;0.40;;;10.80;99.90;;;;;;4455679;32;20593;-64
2024/03/27 08:01:40;;;;;;;0.32;0.32;;;11.00;99.90;;;;;;4447637;32;20176;-63
2024/03/27 08:04:07;;;;;;;0.75;0.68;;;11.10;99.90;;;;;;4459033;32;20722;-65
2024/03/27 08:06:33;;;;;;;0.30;0.30;;;11.30;99.90;;;;;;4458173;32;20076;-62
2024/03/27 08:09:00;;;;;;;3.53;1.12;;;11.50;99.90;;;;;;4458599;32;20077;-62
2024/03/27 08:11:26;;;;;;;3.30;1.05;;;11.60;99.90;;;;;;4459123;32;20461;-62
2024/03/27 08:13:52;;;;;;;0.47;0.47;;;11.50;99.90;;;;;;4457938;32;20070;-63
2024/03/27 08:16:17;;;;;;;0.32;0.32;;;11.60;99.90;;;;;;4458538;32;20088;-66
2024/03/27 08:18:45;;;;;;;0.30;0.30;;;11.80;99.90;;;;;;4458051;32;20068;-64
2024/03/27 08:21:11;;;;;;;0.70;0.55;;;11.90;99.90;;;;;;4449596;32;20084;-63
2024/03/27 08:23:36;;;;;;;0.45;0.45;;;11.90;99.90;;;;;;4456120;32;20127;-67
2024/03/27 08:26:03;;;;;;;0.40;0.40;;;12.00;99.90;;;;;;4455909;32;20068;-67
2024/03/27 08:28:28;;;;;;;9.80;2.37;;;12.10;99.90;;;;;;4455035;32;20143;-65
2024/03/27 08:30:54;;;;;;;1.87;0.70;;;12.00;99.90;;;;;;4457147;32;20097;-66
2024/03/27 08:33:22;;;;;;;1.20;0.85;;;12.10;99.90;;;;;;4454779;32;20084;-66
2024/03/27 08:35:48;;;;;;;0.40;0.40;;;12.20;99.90;;;;;;4449432;32;20130;-66
2024/03/27 08:38:14;;;;;;;0.40;0.40;;;12.10;99.90;;;;;;4455501;32;20544;-66
2024/03/27 08:40:39;;;;;;;0.50;0.50;;;12.20;99.90;;;;;;4456035;32;20069;-66
2024/03/27 08:43:04;;;;;;;1.08;1.00;;;12.30;99.90;;;;;;4447818;32;20061;-67
2024/03/27 08:45:30;;;;;;;0.75;0.70;;;12.30;99.90;;;;;;4456958;32;20100;-67
2024/03/27 08:47:55;;;;;;;1.35;0.80;;;12.40;99.90;;;;;;4454155;32;20524;-67
2024/03/27 08:50:21;;;;;;;0.40;0.40;;;12.30;99.90;;;;;;4454306;32;20077;-67
2024/03/27 08:52:47;;;;;;;1.17;0.70;;;12.50;99.90;;;;;;4454060;32;20128;-62
2024/03/27 08:55:13;;;;;;;0.47;0.47;;;12.50;99.90;;;;;;4454541;32;20528;-62
2024/03/27 08:57:39;;;;;;;0.40;0.40;;;12.60;99.90;;;;;;4448679;32;20109;-64
2024/03/27 09:00:05;;;;;;;0.32;0.32;;;12.80;99.90;;;;;;4455707;32;21149;-65
2024/03/27 09:02:31;;;;;;;0.40;0.40;;;12.80;99.90;;;;;;4444139;32;20143;-62
2024/03/27 09:04:57;;;;;;;0.68;0.60;;;12.90;99.90;;;;;;4454160;32;20536;-62
2024/03/27 09:07:23;;;;;;;0.47;0.47;;;13.00;99.90;;;;;;4456041;32;20068;-64
2024/03/27 09:09:48;;;;;;;0.75;0.75;;;13.20;99.90;;;;;;4456811;32;20105;-63
2024/03/27 09:12:14;;;;;;;0.70;0.70;;;13.40;99.90;;;;;;4449721;32;20077;-63
2024/03/27 09:14:39;;;;;;;2.37;0.73;;;13.50;99.90;;;;;;4455237;32;20076;-63
2024/03/27 09:17:05;;;;;;;0.50;0.50;;;13.60;99.90;;;;;;4456931;32;20076;-63
2024/03/27 09:19:30;;;;;;;2.35;0.85;;;13.60;99.90;;;;;;4454856;32;20065;-66
2024/03/27 09:21:58;;;;;;;0.40;0.40;;;13.70;99.90;;;;;;4456114;32;20073;-64
2024/03/27 09:24:24;;;;;;;1.52;0.62;;;13.90;99.90;;;;;;4455680;32;20126;-63
2024/03/27 09:26:50;;;;;;;0.77;0.77;;;14.10;99.90;;;;;;4445407;32;20290;-62
2024/03/27 09:29:16;;;;;;;0.52;0.52;;;14.20;99.90;;;;;;4455930;32;20108;-62
2024/03/27 09:31:41;;;;;;;0.62;0.62;;;14.40;99.90;;;;;;4455198;32;20077;-63
2024/03/27 09:34:07;;;;;;;0.47;0.47;;;14.50;99.90;;;;;;4458047;32;20119;-63
2024/03/27 09:36:33;;;;;;;0.30;0.30;;;14.50;99.90;;;;;;4456538;32;20077;-63
2024/03/27 09:38:58;;;;;;;0.70;0.62;;;14.70;99.90;;;;;;4457185;32;20166;-64
2024/03/27 09:41:23;;;;;;;1.33;0.73;;;15.00;99.90;;;;;;4455193;32;20130;-62
2024/03/27 09:43:51;;;;;;;0.40;0.40;;;15.20;99.90;;;;;;4455274;32;20126;-62
2024/03/27 09:46:16;;;;;;;0.52;0.50;;;15.40;99.90;;;;;;4452403;32;20073;-63
2024/03/27 09:48:43;;;;;;;1.25;0.75;;;15.60;99.90;;;;;;4455295;32;20085;-63
2024/03/27 09:51:09;;;;;;;1.20;1.10;;;15.80;99.90;;;;;;4454684;32;20131;-65
2024/03/27 09:53:43;;;;;;;2.55;0.85;;;16.10;99.90;;;;;;4454583;32;20084;-62
2024/03/27 09:56:09;;;;;;;1.05;0.32;;;16.00;99.90;;;;;;4448181;32;20631;-63
2024/03/27 09:58:35;;;;;;;3.28;1.62;;;16.30;99.70;;;;;;4456162;32;20081;-61
2024/03/27 10:01:01;;;;;;;0.75;0.75;;;16.30;99.90;;;;;;4456042;32;20112;-64
2024/03/27 10:03:27;;;;;;;0.40;0.40;;;16.60;99.10;;;;;;4448337;32;20638;-65
2024/03/27 10:05:57;;;;;;;0.40;0.40;;;16.60;99.10;;;;;;4449019;32;20125;-66
2024/03/27 10:08:25;;;;;;;0.40;0.40;;;16.60;99.30;;;;;;4455342;32;20337;-65
2024/03/27 10:10:51;;;;;;;0.73;0.73;;;16.80;98.90;;;;;;4456110;32;20061;-65
2024/03/27 10:13:20;;;;;;;0.40;0.40;;;16.80;99.30;;;;;;4449465;32;20068;-65
2024/03/27 10:15:48;;;;;;;0.55;0.55;;;16.80;98.60;;;;;;4454403;32;20061;-65
2024/03/27 10:18:14;;;;;;;0.68;0.68;;;16.90;99.50;;;;;;4454013;32;20182;-66
2024/03/27 10:20:42;;;;;;;0.60;0.60;;;17.10;97.70;;;;;;4449075;32;20072;-65
2024/03/27 10:23:09;;;;;;;0.50;0.50;;;17.20;97.90;;;;;;4456013;32;20142;-65
2024/03/27 10:25:38;;;;;;;0.57;0.57;;;17.20;98.40;;;;;;4454364;32;20194;-65
2024/03/27 10:28:06;;;;;;;3.92;0.57;;;17.40;97.80;;;;;;4452703;32;20076;-66
2024/03/27 10:30:32;;;;;;;0.55;0.55;;;17.40;96.90;;;;;;4454494;32;20528;-65
2024/03/27 10:32:57;;;;;;;0.50;0.50;;;17.20;97.70;;;;;;4454748;32;20089;-65
2024/03/27 10:35:30;;;;;;;0.60;0.60;;;17.20;97.80;;;;;;4453389;32;20512;-65
2024/03/27 10:37:56;;;;;;;0.50;0.50;;;17.20;97.50;;;;;;4444377;32;20076;-65
2024/03/27 10:40:22;;;;;;;0.50;0.50;;;17.60;97.50;;;;;;4453507;32;20111;-66
2024/03/27 10:42:57;;;;;;;5.35;0.80;;;17.70;97.00;;;;;;4454203;32;20068;-67
2024/03/27 10:45:23;;;;;;;0.40;0.40;;;17.70;96.50;;;;;;4455747;32;20085;-66
2024/03/27 10:47:49;;;;;;;0.43;0.43;;;17.60;96.30;;;;;;4454180;32;20080;-68
2024/03/27 10:50:15;;;;;;;0.30;0.30;;;17.70;96.90;;;;;;4454669;32;20132;-66
2024/03/27 10:52:42;;;;;;;0.40;0.40;;;17.90;97.20;;;;;;4455076;32;20081;-66
2024/03/27 10:55:07;;;;;;;0.32;0.32;;;18.30;97.00;;;;;;4439773;32;20418;-66
2024/03/27 10:57:33;;;;;;;0.40;0.40;;;18.50;96.40;;;;;;4454065;32;20493;-66
2024/03/27 11:00:01;;;;;;;1.05;0.43;;;18.60;95.50;;;;;;4454835;32;20063;-66
2024/03/27 11:02:26;;;;;;;0.32;0.32;;;18.60;95.60;;;;;;4455251;32;20080;-66
2024/03/27 11:04:54;;;;;;;0.45;0.45;;;18.80;95.80;;;;;;4454871;32;20572;-65
2024/03/27 11:07:20;;;;;;;0.52;0.52;;;18.80;95.20;;;;;;4454420;32;20167;-65
2024/03/27 11:09:50;;;;;;;1.40;1.30;;;18.80;95.70;;;;;;4454112;32;20067;-64
2024/03/27 11:12:18;;;;;;;0.57;0.57;;;18.80;94.90;;;;;;4455270;32;20142;-62
2024/03/27 11:14:48;;;;;;;0.43;0.43;;;19.00;94.90;;;;;;4440890;32;20076;-61
2024/03/27 11:17:14;;;;;;;0.60;0.60;;;19.10;94.60;;;;;;4447577;32;20068;-62
2024/03/27 11:19:41;;;;;;;0.95;0.88;;;19.20;94.30;;;;;;4454663;32;20536;-62
2024/03/27 11:22:10;;;;;;;0.40;0.40;;;19.40;94.00;;;;;;4453421;32;20072;-61
2024/03/27 11:24:36;;;;;;;0.50;0.50;;;19.70;93.80;;;;;;4449520;32;20061;-62
2024/03/27 11:27:02;;;;;;;0.50;0.50;;;20.00;92.90;;;;;;4446331;32;20539;-61
2024/03/27 11:29:29;;;;;;;0.47;0.47;;;19.70;93.60;;;;;;4440699;32;20132;-61
2024/03/27 11:31:59;;;;;;;0.43;0.43;;;19.70;93.60;;;;;;4452883;32;20080;-64
2024/03/27 11:34:24;;;;;;;0.50;0.50;;;19.80;93.00;;;;;;4446651;32;20085;-62
2024/03/27 11:36:51;;;;;;;0.30;0.30;;;19.90;93.00;;;;;;4443950;32;20112;-63
2024/03/27 11:39:16;;;;;;;0.40;0.40;;;20.10;92.90;;;;;;4448635;32;20097;-62
2024/03/27 11:41:42;;;;;;;0.52;0.40;;;20.10;92.40;;;;;;4457705;32;20080;-61
2024/03/27 11:44:07;;;;;;;0.55;0.55;;;20.20;92.60;;;;;;4456755;32;20073;-63
2024/03/27 11:46:34;;;;;;;2.05;1.00;;;20.40;92.80;;;;;;4455497;32;20080;-64
2024/03/27 11:49:02;;;;;;;0.30;0.30;;;20.70;92.30;;;;;;4454014;32;20069;-62
2024/03/27 11:51:28;;;;;;;0.40;0.40;;;20.80;92.30;;;;;;4454729;32;20081;-64
2024/03/27 11:53:53;;;;;;;0.57;0.57;;;20.80;91.80;;;;;;4439642;32;92718;-67
2024/03/27 11:56:21;;;;;;;0.37;0.37;;;20.70;92.10;;;;;;4454081;32;20076;-66
2024/03/27 11:58:46;;;;;;;0.20;0.20;;;20.70;91.60;;;;;;4456021;32;20093;-67
2024/03/27 12:01:13;;;;;;;0.22;0.22;;;20.90;92.20;;;;;;4456332;32;20057;-67
2024/03/27 12:03:38;;;;;;;0.30;0.30;;;21.10;91.70;;;;;;4455433;32;20093;-67
2024/03/27 12:06:04;;;;;;;1.50;0.70;;;21.20;90.90;;;;;;4454894;32;20060;-66
2024/03/27 12:08:32;;;;;;;0.65;0.60;;;21.20;91.70;;;;;;4454672;32;20048;-66
2024/03/27 12:10:57;;;;;;;0.30;0.30;;;21.60;92.10;;;;;;4455211;32;20406;-67
2024/03/27 12:13:23;;;;;;;0.50;0.45;;;22.30;89.60;;;;;;4441765;32;20096;-67
2024/03/27 12:15:48;;;;;;;0.50;0.50;;;22.40;89.40;;;;;;4440317;32;20060;-66
2024/03/27 12:18:14;;;;;;;0.20;0.20;;;22.70;89.70;;;;;;4455351;32;20072;-67
2024/03/27 12:20:39;;;;;;;0.25;0.20;;;22.50;88.70;;;;;;4454179;32;20146;-67
2024/03/27 12:23:05;;;;;;;0.32;0.32;;;22.70;88.70;;;;;;4454391;32;20705;-66
2024/03/27 12:25:31;;;;;;;0.90;0.30;;;22.80;88.80;;;;;;4455369;32;20508;-66
2024/03/27 12:28:02;;;;;;;0.30;0.30;;;22.40;88.40;;;;;;4428513;32;20808;-66
2024/03/27 12:30:27;;;;;;;0.77;0.30;;;22.20;88.90;;;;;;4444274;32;20805;-66
2024/03/27 12:32:54;;;;;;;1.12;0.75;;;22.10;88.20;;;;;;4455474;32;20061;-66
2024/03/27 12:35:21;;;;;;;0.30;0.30;;;22.20;89.10;;;;;;4454342;32;20466;-66
2024/03/27 12:37:47;;;;;;;0.70;0.43;;;22.00;90.10;;;;;;4454097;32;20061;-66
2024/03/27 12:40:13;;;;;;;0.57;0.50;;;22.30;88.80;;;;;;4456779;32;20084;-66
2024/03/27 12:42:39;;;;;;;0.30;0.30;;;22.10;89.60;;;;;;4440480;32;20093;-66
2024/03/27 12:45:06;;;;;;;0.57;0.57;;;22.00;90.00;;;;;;4454993;32;20505;-66
2024/03/27 12:47:31;;;;;;;0.20;0.20;;;22.20;89.30;;;;;;4455555;32;20060;-64